sensor_id;sensor_type;location;lat;lon;timestamp;temperature;humidity
10873;DHT22;34586;53.616;10.032;2023-08-07T00:00:17;15.80;99.90
10873;DHT22;34586;53.616;10.032;2023-08-07T00:02:44;15.80;99.90
10873;DHT22;34586;53.616;10.032;2023-08-07T00:05:09;15.80;99.90
10873;DHT22;34586;53.616;10.032;2023-08-07T00:07:35;15.70;99.90
10873;DHT22;34586;53.616;10.032;2023-08-07T00:10:00;15.70;99.90
10873;DHT22;34586;53.616;10.032;2023-08-07T00:12:26;15.70;99.90
10873;DHT22;34586;53.616;10.032;2023-08-07T00:14:52;15.60;99.90
10873;DHT22;34586;53.616;10.032;2023-08-07T00:17:18;15.60;99.90
10873;DHT22;34586;53.616;10.032;2023-08-07T00:19:44;15.60;99.90
10873;DHT22;34586;53.616;10.032;2023-08-07T00:22:09;15.60;99.90
10873;DHT22;34586;53.616;10.032;2023-08-07T00:24:35;15.60;99.90
10873;DHT22;34586;53.616;10.032;2023-08-07T00:27:01;15.60;99.90
10873;DHT22;34586;53.616;10.032;2023-08-07T00:29:27;15.60;99.90
10873;DHT22;34586;53.616;10.032;2023-08-07T00:31:52;15.60;99.90
10873;DHT22;34586;53.616;10.032;2023-08-07T00:34:18;15.50;99.90
10873;DHT22;34586;53.616;10.032;2023-08-07T00:36:44;15.50;99.90
10873;DHT22;34586;53.616;10.032;2023-08-07T00:39:09;15.50;99.90
10873;DHT22;34586;53.616;10.032;2023-08-07T00:41:35;15.50;99.90
10873;DHT22;34586;53.616;10.032;2023-08-07T00:44:00;15.50;99.90
10873;DHT22;34586;53.616;10.032;2023-08-07T00:46:27;15.40;99.90
10873;DHT22;34586;53.616;10.032;2023-08-07T00:48:54;15.50;99.90
10873;DHT22;34586;53.616;10.032;2023-08-07T00:51:20;15.40;99.90
10873;DHT22;34586;53.616;10.032;2023-08-07T00:53:47;15.40;99.90
10873;DHT22;34586;53.616;10.032;2023-08-07T00:56:13;15.40;99.90
10873;DHT22;34586;53.616;10.032;2023-08-07T00:58:39;15.40;99.90
10873;DHT22;34586;53.616;10.032;2023-08-07T01:01:05;15.40;99.90
10873;DHT22;34586;53.616;10.032;2023-08-07T01:03:31;15.40;99.90
10873;DHT22;34586;53.616;10.032;2023-08-07T01:05:57;15.40;99.90
10873;DHT22;34586;53.616;10.032;2023-08-07T01:08:26;15.40;99.90
10873;DHT22;34586;53.616;10.032;2023-08-07T01:11:12;15.40;99.90
10873;DHT22;34586;53.616;10.032;2023-08-07T01:19:04;15.30;99.90
10873;DHT22;34586;53.616;10.032;2023-08-07T01:21:34;15.20;99.90
10873;DHT22;34586;53.616;10.032;2023-08-07T01:24:00;15.20;99.90
10873;DHT22;34586;53.616;10.032;2023-08-07T01:26:25;15.20;99.90
10873;DHT22;34586;53.616;10.032;2023-08-07T01:29:13;15.10;99.90
10873;DHT22;34586;53.616;10.032;2023-08-07T01:31:42;15.10;99.90
10873;DHT22;34586;53.616;10.032;2023-08-07T01:34:10;15.20;99.90
10873;DHT22;34586;53.616;10.032;2023-08-07T01:36:39;15.10;99.90
10873;DHT22;34586;53.616;10.032;2023-08-07T01:39:05;15.10;99.90
10873;DHT22;34586;53.616;10.032;2023-08-07T01:41:32;15.10;99.90
10873;DHT22;34586;53.616;10.032;2023-08-07T01:43:59;15.10;99.90
10873;DHT22;34586;53.616;10.032;2023-08-07T01:46:25;15.10;99.90
10873;DHT22;34586;53.616;10.032;2023-08-07T01:48:50;15.10;99.90
10873;DHT22;34586;53.616;10.032;2023-08-07T01:51:16;15.00;99.90
10873;DHT22;34586;53.616;10.032;2023-08-07T01:53:42;15.00;99.90
10873;DHT22;34586;53.616;10.032;2023-08-07T01:56:07;15.00;99.90
10873;DHT22;34586;53.616;10.032;2023-08-07T01:58:33;15.10;99.90
10873;DHT22;34586;53.616;10.032;2023-08-07T02:00:58;15.00;99.90
10873;DHT22;34586;53.616;10.032;2023-08-07T02:03:24;15.00;99.90
10873;DHT22;34586;53.616;10.032;2023-08-07T02:05:50;15.00;99.90
10873;DHT22;34586;53.616;10.032;2023-08-07T02:08:15;14.90;99.90
10873;DHT22;34586;53.616;10.032;2023-08-07T02:10:41;14.90;99.90
10873;DHT22;34586;53.616;10.032;2023-08-07T02:13:07;14.90;99.90
10873;DHT22;34586;53.616;10.032;2023-08-07T02:15:32;14.90;99.90
10873;DHT22;34586;53.616;10.032;2023-08-07T02:17:58;14.90;99.90
10873;DHT22;34586;53.616;10.032;2023-08-07T02:20:23;14.80;99.90
10873;DHT22;34586;53.616;10.032;2023-08-07T02:22:49;14.80;99.90
10873;DHT22;34586;53.616;10.032;2023-08-07T02:25:15;14.90;99.90
10873;DHT22;34586;53.616;10.032;2023-08-07T02:27:41;14.80;99.90
10873;DHT22;34586;53.616;10.032;2023-08-07T02:30:06;14.80;99.90
10873;DHT22;34586;53.616;10.032;2023-08-07T02:32:32;14.90;99.90
10873;DHT22;34586;53.616;10.032;2023-08-07T02:34:58;14.90;99.90
10873;DHT22;34586;53.616;10.032;2023-08-07T02:37:24;14.90;99.90
10873;DHT22;34586;53.616;10.032;2023-08-07T02:39:49;14.80;99.90
10873;DHT22;34586;53.616;10.032;2023-08-07T02:42:15;14.90;99.90
10873;DHT22;34586;53.616;10.032;2023-08-07T02:44:41;14.80;99.90
10873;DHT22;34586;53.616;10.032;2023-08-07T02:47:06;14.80;99.90
10873;DHT22;34586;53.616;10.032;2023-08-07T02:49:32;14.80;99.90
10873;DHT22;34586;53.616;10.032;2023-08-07T02:51:57;14.90;99.90
10873;DHT22;34586;53.616;10.032;2023-08-07T02:54:23;14.90;99.90
10873;DHT22;34586;53.616;10.032;2023-08-07T02:56:49;14.90;99.90
10873;DHT22;34586;53.616;10.032;2023-08-07T02:59:15;14.90;99.90
10873;DHT22;34586;53.616;10.032;2023-08-07T03:01:41;14.90;99.90
10873;DHT22;34586;53.616;10.032;2023-08-07T03:04:07;14.90;99.90
10873;DHT22;34586;53.616;10.032;2023-08-07T03:06:33;14.90;99.90
10873;DHT22;34586;53.616;10.032;2023-08-07T03:08:59;15.00;99.90
10873;DHT22;34586;53.616;10.032;2023-08-07T03:11:24;15.00;99.90
10873;DHT22;34586;53.616;10.032;2023-08-07T03:13:50;15.00;99.90
10873;DHT22;34586;53.616;10.032;2023-08-07T03:16:15;15.00;99.90
10873;DHT22;34586;53.616;10.032;2023-08-07T03:18:41;15.00;99.90
10873;DHT22;34586;53.616;10.032;2023-08-07T03:21:07;15.10;99.90
10873;DHT22;34586;53.616;10.032;2023-08-07T03:23:32;15.20;99.90
10873;DHT22;34586;53.616;10.032;2023-08-07T03:26:04;15.20;99.90
10873;DHT22;34586;53.616;10.032;2023-08-07T03:28:31;15.20;99.90
10873;DHT22;34586;53.616;10.032;2023-08-07T03:30:57;15.20;99.90
10873;DHT22;34586;53.616;10.032;2023-08-07T03:33:22;15.30;99.90
10873;DHT22;34586;53.616;10.032;2023-08-07T03:35:48;15.30;99.90
10873;DHT22;34586;53.616;10.032;2023-08-07T03:38:13;15.40;99.90
10873;DHT22;34586;53.616;10.032;2023-08-07T03:40:39;15.40;99.90
10873;DHT22;34586;53.616;10.032;2023-08-07T03:43:05;15.40;99.90
10873;DHT22;34586;53.616;10.032;2023-08-07T03:45:30;15.40;99.90
10873;DHT22;34586;53.616;10.032;2023-08-07T03:47:56;15.40;99.90
10873;DHT22;34586;53.616;10.032;2023-08-07T03:50:21;15.40;99.90
10873;DHT22;34586;53.616;10.032;2023-08-07T03:52:47;15.40;99.90
10873;DHT22;34586;53.616;10.032;2023-08-07T03:55:13;15.40;99.90
10873;DHT22;34586;53.616;10.032;2023-08-07T03:57:38;15.30;99.90
10873;DHT22;34586;53.616;10.032;2023-08-07T04:00:04;15.30;99.90
10873;DHT22;34586;53.616;10.032;2023-08-07T04:02:30;15.30;99.90
10873;DHT22;34586;53.616;10.032;2023-08-07T04:04:56;15.30;99.90
10873;DHT22;34586;53.616;10.032;2023-08-07T04:07:21;15.20;99.90
10873;DHT22;34586;53.616;10.032;2023-08-07T04:09:47;15.20;99.90
10873;DHT22;34586;53.616;10.032;2023-08-07T04:12:13;15.30;99.90
10873;DHT22;34586;53.616;10.032;2023-08-07T04:14:38;15.20;99.90
10873;DHT22;34586;53.616;10.032;2023-08-07T04:17:04;15.30;99.90
10873;DHT22;34586;53.616;10.032;2023-08-07T04:19:30;15.20;99.90
10873;DHT22;34586;53.616;10.032;2023-08-07T04:21:56;15.20;99.90
10873;DHT22;34586;53.616;10.032;2023-08-07T04:24:21;15.30;99.90
10873;DHT22;34586;53.616;10.032;2023-08-07T04:26:47;15.20;99.90
10873;DHT22;34586;53.616;10.032;2023-08-07T04:29:13;15.30;99.90
10873;DHT22;34586;53.616;10.032;2023-08-07T04:31:38;15.30;99.90
10873;DHT22;34586;53.616;10.032;2023-08-07T04:34:04;15.30;99.90
10873;DHT22;34586;53.616;10.032;2023-08-07T04:36:30;15.30;99.90
10873;DHT22;34586;53.616;10.032;2023-08-07T04:38:55;15.40;99.90
10873;DHT22;34586;53.616;10.032;2023-08-07T04:41:22;15.30;99.90
10873;DHT22;34586;53.616;10.032;2023-08-07T04:43:47;15.40;99.90
10873;DHT22;34586;53.616;10.032;2023-08-07T04:46:14;15.40;99.90
10873;DHT22;34586;53.616;10.032;2023-08-07T04:48:40;15.40;99.90
10873;DHT22;34586;53.616;10.032;2023-08-07T04:51:05;15.50;99.90
10873;DHT22;34586;53.616;10.032;2023-08-07T04:53:31;15.50;99.90
10873;DHT22;34586;53.616;10.032;2023-08-07T04:55:59;15.50;99.90
10873;DHT22;34586;53.616;10.032;2023-08-07T04:58:24;15.60;99.90
10873;DHT22;34586;53.616;10.032;2023-08-07T05:00:55;15.60;99.90
10873;DHT22;34586;53.616;10.032;2023-08-07T05:03:21;15.60;99.90
10873;DHT22;34586;53.616;10.032;2023-08-07T05:05:46;15.70;99.90
10873;DHT22;34586;53.616;10.032;2023-08-07T05:08:12;15.70;99.90
10873;DHT22;34586;53.616;10.032;2023-08-07T05:10:38;15.80;99.90
10873;DHT22;34586;53.616;10.032;2023-08-07T05:13:03;15.80;99.90
10873;DHT22;34586;53.616;10.032;2023-08-07T05:15:29;15.80;99.90
10873;DHT22;34586;53.616;10.032;2023-08-07T05:17:56;15.90;99.90
10873;DHT22;34586;53.616;10.032;2023-08-07T05:20:21;15.90;99.90
10873;DHT22;34586;53.616;10.032;2023-08-07T05:22:47;16.00;99.90
10873;DHT22;34586;53.616;10.032;2023-08-07T05:25:13;16.00;99.90
10873;DHT22;34586;53.616;10.032;2023-08-07T05:27:42;16.10;99.90
10873;DHT22;34586;53.616;10.032;2023-08-07T05:30:08;16.10;99.90
10873;DHT22;34586;53.616;10.032;2023-08-07T05:32:33;16.10;99.90
10873;DHT22;34586;53.616;10.032;2023-08-07T05:35:06;16.20;99.90
10873;DHT22;34586;53.616;10.032;2023-08-07T05:37:35;16.30;99.90
10873;DHT22;34586;53.616;10.032;2023-08-07T05:40:01;16.30;99.90
10873;DHT22;34586;53.616;10.032;2023-08-07T05:42:27;16.30;99.90
10873;DHT22;34586;53.616;10.032;2023-08-07T05:44:53;16.30;99.90
10873;DHT22;34586;53.616;10.032;2023-08-07T05:47:18;16.30;99.90
10873;DHT22;34586;53.616;10.032;2023-08-07T05:49:44;16.40;99.90
10873;DHT22;34586;53.616;10.032;2023-08-07T05:52:09;16.40;99.90
10873;DHT22;34586;53.616;10.032;2023-08-07T05:54:35;16.40;99.90
10873;DHT22;34586;53.616;10.032;2023-08-07T05:57:00;16.40;99.90
10873;DHT22;34586;53.616;10.032;2023-08-07T05:59:26;16.40;99.90
10873;DHT22;34586;53.616;10.032;2023-08-07T06:01:53;16.40;99.90
10873;DHT22;34586;53.616;10.032;2023-08-07T06:04:19;16.50;99.90
10873;DHT22;34586;53.616;10.032;2023-08-07T06:06:44;16.50;99.90
10873;DHT22;34586;53.616;10.032;2023-08-07T06:09:11;16.50;99.90
10873;DHT22;34586;53.616;10.032;2023-08-07T06:11:36;16.50;99.90
10873;DHT22;34586;53.616;10.032;2023-08-07T06:14:02;16.50;99.90
10873;DHT22;34586;53.616;10.032;2023-08-07T06:16:28;16.50;99.90
10873;DHT22;34586;53.616;10.032;2023-08-07T06:18:53;16.50;99.90
10873;DHT22;34586;53.616;10.032;2023-08-07T06:21:19;16.50;99.90
10873;DHT22;34586;53.616;10.032;2023-08-07T06:23:46;16.50;99.90
10873;DHT22;34586;53.616;10.032;2023-08-07T06:26:12;16.60;99.90
10873;DHT22;34586;53.616;10.032;2023-08-07T06:28:37;16.60;99.90
10873;DHT22;34586;53.616;10.032;2023-08-07T06:31:07;16.60;99.90
10873;DHT22;34586;53.616;10.032;2023-08-07T06:33:33;16.60;99.90
10873;DHT22;34586;53.616;10.032;2023-08-07T06:36:00;16.70;99.90
10873;DHT22;34586;53.616;10.032;2023-08-07T06:38:25;16.70;99.90
10873;DHT22;34586;53.616;10.032;2023-08-07T06:40:51;16.70;99.90
10873;DHT22;34586;53.616;10.032;2023-08-07T06:43:17;16.70;99.90
10873;DHT22;34586;53.616;10.032;2023-08-07T06:45:43;16.70;99.90
10873;DHT22;34586;53.616;10.032;2023-08-07T06:48:09;16.70;99.90
10873;DHT22;34586;53.616;10.032;2023-08-07T06:50:34;16.70;99.90
10873;DHT22;34586;53.616;10.032;2023-08-07T06:53:00;16.70;99.90
10873;DHT22;34586;53.616;10.032;2023-08-07T06:55:26;16.70;99.90
10873;DHT22;34586;53.616;10.032;2023-08-07T06:57:52;16.70;99.90
10873;DHT22;34586;53.616;10.032;2023-08-07T07:00:17;16.70;99.90
10873;DHT22;34586;53.616;10.032;2023-08-07T07:02:43;16.80;99.90
10873;DHT22;34586;53.616;10.032;2023-08-07T07:05:08;16.80;99.90
10873;DHT22;34586;53.616;10.032;2023-08-07T07:07:35;16.90;99.90
10873;DHT22;34586;53.616;10.032;2023-08-07T07:10:00;16.90;99.90
10873;DHT22;34586;53.616;10.032;2023-08-07T07:12:29;16.90;99.90
10873;DHT22;34586;53.616;10.032;2023-08-07T07:14:55;16.90;99.90
10873;DHT22;34586;53.616;10.032;2023-08-07T07:17:20;16.90;99.90
10873;DHT22;34586;53.616;10.032;2023-08-07T07:19:46;17.00;56.80
10873;DHT22;34586;53.616;10.032;2023-08-07T07:22:12;17.10;68.50
10873;DHT22;34586;53.616;10.032;2023-08-07T07:24:38;17.20;1.00
10873;DHT22;34586;53.616;10.032;2023-08-07T07:27:04;17.30;1.00
10873;DHT22;34586;53.616;10.032;2023-08-07T07:29:29;17.40;1.00
10873;DHT22;34586;53.616;10.032;2023-08-07T07:31:55;17.30;1.00
10873;DHT22;34586;53.616;10.032;2023-08-07T07:34:21;17.30;1.00
10873;DHT22;34586;53.616;10.032;2023-08-07T07:36:47;16.90;77.40
10873;DHT22;34586;53.616;10.032;2023-08-07T07:39:13;16.70;99.90
10873;DHT22;34586;53.616;10.032;2023-08-07T07:41:38;16.60;99.90
10873;DHT22;34586;53.616;10.032;2023-08-07T07:44:04;16.60;99.90
10873;DHT22;34586;53.616;10.032;2023-08-07T07:46:30;16.50;99.90
10873;DHT22;34586;53.616;10.032;2023-08-07T07:48:57;16.60;99.90
10873;DHT22;34586;53.616;10.032;2023-08-07T07:51:23;16.70;99.90
10873;DHT22;34586;53.616;10.032;2023-08-07T07:53:48;16.90;84.50
10873;DHT22;34586;53.616;10.032;2023-08-07T07:56:14;17.00;33.30
10873;DHT22;34586;53.616;10.032;2023-08-07T07:58:40;17.10;1.00
10873;DHT22;34586;53.616;10.032;2023-08-07T08:01:06;17.30;1.00
10873;DHT22;34586;53.616;10.032;2023-08-07T08:03:32;17.40;1.00
10873;DHT22;34586;53.616;10.032;2023-08-07T08:05:58;17.60;1.00
10873;DHT22;34586;53.616;10.032;2023-08-07T08:08:23;17.60;99.90
10873;DHT22;34586;53.616;10.032;2023-08-07T08:10:49;17.60;99.90
10873;DHT22;34586;53.616;10.032;2023-08-07T08:13:16;17.60;99.90
10873;DHT22;34586;53.616;10.032;2023-08-07T08:15:43;17.50;1.00
10873;DHT22;34586;53.616;10.032;2023-08-07T08:18:09;17.40;1.00
10873;DHT22;34586;53.616;10.032;2023-08-07T08:20:35;17.10;1.00
10873;DHT22;34586;53.616;10.032;2023-08-07T08:23:01;16.90;1.00
10873;DHT22;34586;53.616;10.032;2023-08-07T08:25:26;16.90;23.60
10873;DHT22;34586;53.616;10.032;2023-08-07T08:27:52;17.00;76.60
10873;DHT22;34586;53.616;10.032;2023-08-07T08:30:17;17.00;67.30
10873;DHT22;34586;53.616;10.032;2023-08-07T08:32:43;17.30;1.00
10873;DHT22;34586;53.616;10.032;2023-08-07T08:35:10;17.30;1.00
10873;DHT22;34586;53.616;10.032;2023-08-07T08:37:37;17.20;1.00
10873;DHT22;34586;53.616;10.032;2023-08-07T08:40:02;17.30;1.00
10873;DHT22;34586;53.616;10.032;2023-08-07T08:42:28;17.30;1.00
10873;DHT22;34586;53.616;10.032;2023-08-07T08:44:59;17.30;1.00
10873;DHT22;34586;53.616;10.032;2023-08-07T08:47:29;17.20;28.20
10873;DHT22;34586;53.616;10.032;2023-08-07T08:50:07;17.10;1.00
10873;DHT22;34586;53.616;10.032;2023-08-07T08:52:40;17.00;88.00
10873;DHT22;34586;53.616;10.032;2023-08-07T08:55:09;16.90;99.90
10873;DHT22;34586;53.616;10.032;2023-08-07T08:57:35;16.90;99.90
10873;DHT22;34586;53.616;10.032;2023-08-07T09:00:03;17.00;87.30
10873;DHT22;34586;53.616;10.032;2023-08-07T09:02:41;17.10;70.40
10873;DHT22;34586;53.616;10.032;2023-08-07T09:05:07;17.20;10.40
10873;DHT22;34586;53.616;10.032;2023-08-07T09:07:33;17.10;1.00
10873;DHT22;34586;53.616;10.032;2023-08-07T09:10:02;17.00;1.00
10873;DHT22;34586;53.616;10.032;2023-08-07T09:12:29;17.00;98.10
10873;DHT22;34586;53.616;10.032;2023-08-07T09:14:58;16.90;99.90
10873;DHT22;34586;53.616;10.032;2023-08-07T09:17:25;16.90;76.70
10873;DHT22;34586;53.616;10.032;2023-08-07T09:19:52;17.10;99.90
10873;DHT22;34586;53.616;10.032;2023-08-07T09:22:19;17.40;99.90
10873;DHT22;34586;53.616;10.032;2023-08-07T09:24:45;17.70;1.00
10873;DHT22;34586;53.616;10.032;2023-08-07T09:27:10;18.00;1.00
10873;DHT22;34586;53.616;10.032;2023-08-07T09:29:36;18.30;99.90
10873;DHT22;34586;53.616;10.032;2023-08-07T09:32:22;18.50;99.90
10873;DHT22;34586;53.616;10.032;2023-08-07T09:34:50;18.70;40.60
10873;DHT22;34586;53.616;10.032;2023-08-07T09:37:16;18.70;1.00
10873;DHT22;34586;53.616;10.032;2023-08-07T09:39:42;18.60;1.00
10873;DHT22;34586;53.616;10.032;2023-08-07T09:42:14;18.60;1.00
10873;DHT22;34586;53.616;10.032;2023-08-07T09:44:40;18.60;1.00
10873;DHT22;34586;53.616;10.032;2023-08-07T09:47:33;18.60;99.90
10873;DHT22;34586;53.616;10.032;2023-08-07T09:49:58;18.60;1.00
10873;DHT22;34586;53.616;10.032;2023-08-07T09:52:24;18.50;1.00
10873;DHT22;34586;53.616;10.032;2023-08-07T09:54:51;18.50;1.00
10873;DHT22;34586;53.616;10.032;2023-08-07T09:57:16;18.50;1.00
10873;DHT22;34586;53.616;10.032;2023-08-07T09:59:42;18.50;1.00
10873;DHT22;34586;53.616;10.032;2023-08-07T10:02:08;18.50;99.90
10873;DHT22;34586;53.616;10.032;2023-08-07T10:04:34;18.60;99.90
10873;DHT22;34586;53.616;10.032;2023-08-07T10:07:01;18.60;1.00
10873;DHT22;34586;53.616;10.032;2023-08-07T10:09:27;18.60;99.90
10873;DHT22;34586;53.616;10.032;2023-08-07T10:11:53;18.70;1.00
10873;DHT22;34586;53.616;10.032;2023-08-07T10:14:19;18.70;1.00
10873;DHT22;34586;53.616;10.032;2023-08-07T10:16:46;18.70;1.00
10873;DHT22;34586;53.616;10.032;2023-08-07T10:19:12;18.80;1.00
10873;DHT22;34586;53.616;10.032;2023-08-07T10:21:41;18.80;1.00
10873;DHT22;34586;53.616;10.032;2023-08-07T10:24:08;18.90;99.90
10873;DHT22;34586;53.616;10.032;2023-08-07T10:26:36;18.90;99.90
10873;DHT22;34586;53.616;10.032;2023-08-07T10:29:04;18.90;99.90
10873;DHT22;34586;53.616;10.032;2023-08-07T10:31:31;19.00;99.90
10873;DHT22;34586;53.616;10.032;2023-08-07T10:33:59;19.00;1.00
10873;DHT22;34586;53.616;10.032;2023-08-07T10:36:32;19.00;99.90
10873;DHT22;34586;53.616;10.032;2023-08-07T10:39:09;19.10;99.90
10873;DHT22;34586;53.616;10.032;2023-08-07T10:41:46;19.00;99.90
10873;DHT22;34586;53.616;10.032;2023-08-07T10:44:25;18.90;1.00
10873;DHT22;34586;53.616;10.032;2023-08-07T10:46:56;19.10;94.20
10873;DHT22;34586;53.616;10.032;2023-08-07T10:49:37;19.30;1.00
10873;DHT22;34586;53.616;10.032;2023-08-07T10:52:08;19.50;99.90
10873;DHT22;34586;53.616;10.032;2023-08-07T10:54:45;19.70;1.00
10873;DHT22;34586;53.616;10.032;2023-08-07T10:57:16;19.60;99.90
10873;DHT22;34586;53.616;10.032;2023-08-07T11:02:27;19.60;99.90
10873;DHT22;34586;53.616;10.032;2023-08-07T11:04:54;19.50;99.90
10873;DHT22;34586;53.616;10.032;2023-08-07T11:07:25;19.30;1.00
10873;DHT22;34586;53.616;10.032;2023-08-07T11:09:51;19.10;99.90
10873;DHT22;34586;53.616;10.032;2023-08-07T11:12:17;18.90;99.90
10873;DHT22;34586;53.616;10.032;2023-08-07T11:14:43;18.90;99.90
10873;DHT22;34586;53.616;10.032;2023-08-07T11:17:09;19.10;99.90
10873;DHT22;34586;53.616;10.032;2023-08-07T11:19:35;19.00;1.00
10873;DHT22;34586;53.616;10.032;2023-08-07T11:22:01;19.00;1.00
10873;DHT22;34586;53.616;10.032;2023-08-07T11:24:27;19.00;15.30
10873;DHT22;34586;53.616;10.032;2023-08-07T11:26:53;19.00;99.90
10873;DHT22;34586;53.616;10.032;2023-08-07T11:29:21;19.00;1.00
10873;DHT22;34586;53.616;10.032;2023-08-07T11:31:50;18.90;99.90
10873;DHT22;34586;53.616;10.032;2023-08-07T11:34:19;18.80;99.90
10873;DHT22;34586;53.616;10.032;2023-08-07T11:36:45;18.80;1.00
10873;DHT22;34586;53.616;10.032;2023-08-07T11:39:12;19.00;1.00
10873;DHT22;34586;53.616;10.032;2023-08-07T11:41:38;19.20;99.90
10873;DHT22;34586;53.616;10.032;2023-08-07T11:44:04;19.30;99.90
10873;DHT22;34586;53.616;10.032;2023-08-07T11:46:30;19.50;99.90
10873;DHT22;34586;53.616;10.032;2023-08-07T11:48:56;19.40;99.90
10873;DHT22;34586;53.616;10.032;2023-08-07T11:51:22;19.30;99.90
10873;DHT22;34586;53.616;10.032;2023-08-07T11:53:48;19.20;99.90
10873;DHT22;34586;53.616;10.032;2023-08-07T11:56:14;19.40;28.00
10873;DHT22;34586;53.616;10.032;2023-08-07T11:58:44;19.50;99.90
10873;DHT22;34586;53.616;10.032;2023-08-07T12:01:21;19.70;1.00
10873;DHT22;34586;53.616;10.032;2023-08-07T12:06:23;19.70;99.90
10873;DHT22;34586;53.616;10.032;2023-08-07T12:08:52;19.40;99.90
10873;DHT22;34586;53.616;10.032;2023-08-07T12:11:19;19.10;1.00
10873;DHT22;34586;53.616;10.032;2023-08-07T12:13:47;18.50;99.90
10873;DHT22;34586;53.616;10.032;2023-08-07T12:16:16;18.20;99.90
10873;DHT22;34586;53.616;10.032;2023-08-07T12:18:49;18.10;99.90
10873;DHT22;34586;53.616;10.032;2023-08-07T12:21:16;18.10;1.00
10873;DHT22;34586;53.616;10.032;2023-08-07T12:23:44;18.20;1.00
10873;DHT22;34586;53.616;10.032;2023-08-07T12:26:09;18.30;1.00
10873;DHT22;34586;53.616;10.032;2023-08-07T12:28:35;18.70;1.00
10873;DHT22;34586;53.616;10.032;2023-08-07T12:31:02;19.00;1.00
10873;DHT22;34586;53.616;10.032;2023-08-07T12:33:31;19.10;99.90
10873;DHT22;34586;53.616;10.032;2023-08-07T12:35:57;19.30;99.90
10873;DHT22;34586;53.616;10.032;2023-08-07T12:38:23;19.20;99.90
10873;DHT22;34586;53.616;10.032;2023-08-07T12:40:49;18.90;99.90
10873;DHT22;34586;53.616;10.032;2023-08-07T12:43:15;18.60;1.00
10873;DHT22;34586;53.616;10.032;2023-08-07T12:45:41;18.70;1.00
10873;DHT22;34586;53.616;10.032;2023-08-07T12:48:06;18.70;95.30
10873;DHT22;34586;53.616;10.032;2023-08-07T12:50:32;19.20;1.00
10873;DHT22;34586;53.616;10.032;2023-08-07T12:52:58;20.00;99.90
10873;DHT22;34586;53.616;10.032;2023-08-07T12:55:24;20.80;99.90
10873;DHT22;34586;53.616;10.032;2023-08-07T12:57:50;21.00;99.90
10873;DHT22;34586;53.616;10.032;2023-08-07T13:00:16;20.90;99.90
10873;DHT22;34586;53.616;10.032;2023-08-07T13:02:43;20.50;99.40
10873;DHT22;34586;53.616;10.032;2023-08-07T13:05:09;20.10;1.00
10873;DHT22;34586;53.616;10.032;2023-08-07T13:07:36;20.10;8.10
10873;DHT22;34586;53.616;10.032;2023-08-07T13:10:04;20.10;99.90
10873;DHT22;34586;53.616;10.032;2023-08-07T13:12:30;20.40;1.00
10873;DHT22;34586;53.616;10.032;2023-08-07T13:14:59;20.80;1.00
10873;DHT22;34586;53.616;10.032;2023-08-07T13:17:25;21.00;1.00
10873;DHT22;34586;53.616;10.032;2023-08-07T13:19:50;21.00;1.00
10873;DHT22;34586;53.616;10.032;2023-08-07T13:22:16;21.40;1.00
10873;DHT22;34586;53.616;10.032;2023-08-07T13:24:42;21.60;1.00
10873;DHT22;34586;53.616;10.032;2023-08-07T13:27:08;21.70;1.00
10873;DHT22;34586;53.616;10.032;2023-08-07T13:29:34;21.80;1.00
10873;DHT22;34586;53.616;10.032;2023-08-07T13:32:00;21.70;1.00
10873;DHT22;34586;53.616;10.032;2023-08-07T13:34:25;21.90;1.00
10873;DHT22;34586;53.616;10.032;2023-08-07T13:36:51;21.60;1.00
10873;DHT22;34586;53.616;10.032;2023-08-07T13:39:17;21.30;1.00
10873;DHT22;34586;53.616;10.032;2023-08-07T13:41:42;21.50;1.00
10873;DHT22;34586;53.616;10.032;2023-08-07T13:44:08;21.90;1.00
10873;DHT22;34586;53.616;10.032;2023-08-07T13:46:33;21.00;99.90
10873;DHT22;34586;53.616;10.032;2023-08-07T13:48:59;20.60;99.90
10873;DHT22;34586;53.616;10.032;2023-08-07T13:51:25;20.50;99.90
10873;DHT22;34586;53.616;10.032;2023-08-07T13:53:51;20.20;1.00
10873;DHT22;34586;53.616;10.032;2023-08-07T13:56:18;20.00;1.00
10873;DHT22;34586;53.616;10.032;2023-08-07T13:58:43;19.80;1.00
10873;DHT22;34586;53.616;10.032;2023-08-07T14:01:09;19.70;1.00
10873;DHT22;34586;53.616;10.032;2023-08-07T14:03:35;19.40;1.00
10873;DHT22;34586;53.616;10.032;2023-08-07T14:06:01;19.20;1.00
10873;DHT22;34586;53.616;10.032;2023-08-07T14:08:26;19.00;1.00
10873;DHT22;34586;53.616;10.032;2023-08-07T14:10:52;19.00;1.00
10873;DHT22;34586;53.616;10.032;2023-08-07T14:13:18;19.00;1.00
10873;DHT22;34586;53.616;10.032;2023-08-07T14:15:43;19.10;1.00
10873;DHT22;34586;53.616;10.032;2023-08-07T14:18:09;19.10;1.00
10873;DHT22;34586;53.616;10.032;2023-08-07T14:20:36;19.40;1.00
10873;DHT22;34586;53.616;10.032;2023-08-07T14:23:01;20.10;99.90
10873;DHT22;34586;53.616;10.032;2023-08-07T14:25:27;20.50;1.00
10873;DHT22;34586;53.616;10.032;2023-08-07T14:27:53;20.70;99.90
10873;DHT22;34586;53.616;10.032;2023-08-07T14:30:19;20.60;1.00
10873;DHT22;34586;53.616;10.032;2023-08-07T14:32:46;20.60;1.00
10873;DHT22;34586;53.616;10.032;2023-08-07T14:35:13;20.80;35.00
10873;DHT22;34586;53.616;10.032;2023-08-07T14:37:39;20.50;1.00
10873;DHT22;34586;53.616;10.032;2023-08-07T14:40:06;20.40;38.90
10873;DHT22;34586;53.616;10.032;2023-08-07T14:42:32;20.20;1.00
10873;DHT22;34586;53.616;10.032;2023-08-07T14:44:58;20.30;1.00
10873;DHT22;34586;53.616;10.032;2023-08-07T14:47:24;20.40;1.00
10873;DHT22;34586;53.616;10.032;2023-08-07T14:49:50;20.30;1.00
10873;DHT22;34586;53.616;10.032;2023-08-07T14:52:15;20.00;1.00
10873;DHT22;34586;53.616;10.032;2023-08-07T14:54:41;19.70;1.00
10873;DHT22;34586;53.616;10.032;2023-08-07T14:57:06;19.40;1.00
10873;DHT22;34586;53.616;10.032;2023-08-07T14:59:32;19.00;99.90
10873;DHT22;34586;53.616;10.032;2023-08-07T15:01:57;18.70;1.00
10873;DHT22;34586;53.616;10.032;2023-08-07T15:04:23;18.40;1.00
10873;DHT22;34586;53.616;10.032;2023-08-07T15:06:49;18.10;99.90
10873;DHT22;34586;53.616;10.032;2023-08-07T15:09:16;17.90;99.90
10873;DHT22;34586;53.616;10.032;2023-08-07T15:11:48;17.80;99.90
10873;DHT22;34586;53.616;10.032;2023-08-07T15:14:14;17.80;99.90
10873;DHT22;34586;53.616;10.032;2023-08-07T15:16:40;17.60;99.90
10873;DHT22;34586;53.616;10.032;2023-08-07T15:19:06;17.40;1.00
10873;DHT22;34586;53.616;10.032;2023-08-07T15:21:32;17.20;1.00
10873;DHT22;34586;53.616;10.032;2023-08-07T15:23:57;17.00;1.00
10873;DHT22;34586;53.616;10.032;2023-08-07T15:26:23;17.10;1.00